Time;durP1;ratioP1;P1;durP2;ratioP2;P2;SDS_P1;SDS_P2;PMS_P1;PMS_P2;Temp;Humidity;BMP_temperature;BMP_pressure;BME280_temperature;BME280_humidity;BME280_pressure;Samples;Min_cycle;Max_cycle;Signal;HPM_P1;HPM_P2
2021/01/06 00:00:21;;;;;;;;;;;;;;;0.82;100.00;98973.47;5046194;28;19924;-83
2021/01/06 00:02:47;;;;;;;;;;;;;;;0.84;100.00;98970.94;5047696;28;19943;-83
2021/01/06 00:05:16;;;;;;;;;;;;;;;0.83;100.00;98984.47;5078368;28;20282;-82
2021/01/06 00:07:45;;;;;;;;;;;;;;;0.88;100.00;98974.34;5059855;28;19917;-83
2021/01/06 00:10:11;;;;;;;;;;;;;;;0.82;100.00;98970.06;5061970;28;19916;-82
2021/01/06 00:12:39;;;;;;;;;;;;;;;0.73;100.00;98972.56;5061572;28;20000;-81
2021/01/06 00:15:04;;;;;;;;;;;;;;;0.74;100.00;98970.03;5062219;28;20984;-83
2021/01/06 00:17:30;;;;;;;;;;;;;;;0.81;100.00;98976.00;5047872;28;20002;-82
2021/01/06 00:19:55;;;;;;;;;;;;;;;0.88;100.00;98966.75;5061420;28;19993;-82
2021/01/06 00:22:20;;;;;;;;;;;;;;;0.82;100.00;98967.53;5058733;28;19920;-81
2021/01/06 00:24:46;;;;;;;;;;;;;;;0.86;100.00;98968.44;5056534;28;19982;-82
2021/01/06 00:27:11;;;;;;;;;;;;;;;0.71;100.00;98970.03;5059730;28;20393;-82
2021/01/06 00:29:37;;;;;;;;;;;;;;;0.81;100.00;98974.31;5060888;28;19924;-82
2021/01/06 00:32:02;;;;;;;;;;;;;;;0.88;100.00;98972.66;5078208;28;19920;-83
2021/01/06 00:34:28;;;;;;;;;;;;;;;0.83;100.00;98974.31;5064404;28;20412;-84
2021/01/06 00:36:54;;;;;;;;;;;;;;;0.93;100.00;98977.75;5051071;28;19916;-84
2021/01/06 00:39:19;;;;;;;;;;;;;;;0.86;100.00;98969.25;5050940;28;19923;-83
2021/01/06 00:41:46;;;;;;;;;;;;;;;0.85;100.00;98966.75;5059300;28;20305;-83
2021/01/06 00:44:12;;;;;;;;;;;;;;;0.88;100.00;98961.69;5050537;28;19916;-87
2021/01/06 00:46:37;;;;;;;;;;;;;;;1.02;100.00;98965.13;5048078;28;19927;-84
2021/01/06 00:49:04;;;;;;;;;;;;;;;1.04;100.00;98960.94;5062854;28;19998;-85
2021/01/06 00:51:29;;;;;;;;;;;;;;;0.92;100.00;98958.34;5058967;28;19927;-83
2021/01/06 00:53:55;;;;;;;;;;;;;;;0.86;100.00;98958.28;5061514;28;19917;-86
2021/01/06 00:56:27;;;;;;;;;;;;;;;0.91;100.00;98962.53;5060129;28;19920;-84
2021/01/06 00:58:52;;;;;;;;;;;;;;;0.97;100.00;98959.19;5049942;28;20011;-85
2021/01/06 01:01:17;;;;;;;;;;;;;;;1.02;100.00;98960.06;5051054;28;20007;-84
2021/01/06 01:03:44;;;;;;;;;;;;;;;0.94;100.00;98961.72;5046309;28;19916;-84
2021/01/06 01:06:09;;;;;;;;;;;;;;;0.95;100.00;98956.66;5065821;28;19966;-87
2021/01/06 01:08:35;;;;;;;;;;;;;;;1.02;100.00;98945.69;5051698;28;20405;-89
2021/01/06 01:11:00;;;;;;;;;;;;;;;0.99;100.00;98947.38;5068622;28;19923;-86
2021/01/06 01:13:31;;;;;;;;;;;;;;;1.01;100.00;98945.69;5057797;28;20042;-85
2021/01/06 01:15:56;;;;;;;;;;;;;;;0.99;100.00;98944.84;5073621;28;19920;-85
2021/01/06 01:18:23;;;;;;;;;;;;;;;0.97;100.00;98951.59;5057969;28;19919;-85
2021/01/06 01:20:49;;;;;;;;;;;;;;;0.93;100.00;98955.78;5058464;28;19961;-86
2021/01/06 01:23:16;;;;;;;;;;;;;;;0.97;100.00;98946.53;5058431;28;19951;-86
2021/01/06 01:25:42;;;;;;;;;;;;;;;0.96;100.00;98957.50;5055922;28;19949;-86
2021/01/06 01:28:07;;;;;;;;;;;;;;;0.95;100.00;98949.03;5053835;28;20350;-86
2021/01/06 01:30:33;;;;;;;;;;;;;;;0.95;100.00;98954.09;5049215;28;20303;-88
2021/01/06 01:32:58;;;;;;;;;;;;;;;0.92;100.00;98958.34;5058223;28;20029;-87
2021/01/06 01:35:28;;;;;;;;;;;;;;;1.00;100.00;98954.13;5061042;28;19913;-87
2021/01/06 01:37:53;;;;;;;;;;;;;;;0.96;100.00;98955.81;5072062;28;19913;-87
2021/01/06 01:40:26;;;;;;;;;;;;;;;0.91;100.00;98956.63;5052866;28;19924;-87
2021/01/06 01:43:27;;;;;;;;;;;;;;;0.87;100.00;98959.97;5064750;28;19912;-87
2021/01/06 01:45:52;;;;;;;;;;;;;;;0.91;100.00;98956.63;5013711;28;19913;-87
2021/01/06 01:48:21;;;;;;;;;;;;;;;0.92;100.00;98949.03;5062234;28;19919;-87
2021/01/06 01:50:46;;;;;;;;;;;;;;;0.92;100.00;98958.34;5069933;28;19923;-88
2021/01/06 01:53:12;;;;;;;;;;;;;;;0.91;100.00;98956.63;5053066;28;19916;-86
2021/01/06 01:55:37;;;;;;;;;;;;;;;1.06;100.00;98950.81;5046898;28;19927;-86
2021/01/06 01:58:03;;;;;;;;;;;;;;;0.88;100.00;98952.38;5040927;28;20313;-86
2021/01/06 02:00:29;;;;;;;;;;;;;;;0.97;100.00;98947.34;5039439;28;19931;-87
2021/01/06 02:03:14;;;;;;;;;;;;;;;0.91;100.00;98946.47;5053068;28;19967;-87
2021/01/06 02:05:52;;;;;;;;;;;;;;;0.90;100.00;98945.63;5062033;28;19917;-86
2021/01/06 02:08:17;;;;;;;;;;;;;;;0.92;100.00;98945.66;5056039;28;19921;-87
2021/01/06 02:11:02;;;;;;;;;;;;;;;0.95;100.00;98943.13;5054874;28;20759;-87
2021/01/06 02:13:33;;;;;;;;;;;;;;;0.99;100.00;98940.63;5037492;28;19970;-86
2021/01/06 02:16:17;;;;;;;;;;;;;;;0.93;100.00;98942.25;5039651;28;19920;-87
2021/01/06 02:18:42;;;;;;;;;;;;;;;0.91;100.00;98936.34;5058975;28;19940;-87
2021/01/06 02:21:13;;;;;;;;;;;;;;;0.96;100.00;98934.69;5042905;28;20003;-87
2021/01/06 02:23:38;;;;;;;;;;;;;;;0.95;100.00;98938.91;5063517;28;19916;-88
2021/01/06 02:26:04;;;;;;;;;;;;;;;0.87;100.00;98944.75;5061966;28;19912;-85
2021/01/06 02:28:29;;;;;;;;;;;;;;;0.93;100.00;98944.81;5052523;28;19973;-87
2021/01/06 02:30:54;;;;;;;;;;;;;;;0.96;100.00;98944.84;5052489;28;20689;-86
2021/01/06 02:33:20;;;;;;;;;;;;;;;0.94;100.00;98949.06;5051027;28;19950;-88
2021/01/06 02:35:45;;;;;;;;;;;;;;;0.93;100.00;98947.34;5051420;28;20455;-87
2021/01/06 02:38:10;;;;;;;;;;;;;;;0.91;100.00;98952.38;5050860;28;20006;-88
2021/01/06 02:40:36;;;;;;;;;;;;;;;0.88;100.00;98949.00;5041725;28;19978;-88
2021/01/06 02:43:02;;;;;;;;;;;;;;;0.92;100.00;98953.25;5041450;28;19917;-86
2021/01/06 02:45:27;;;;;;;;;;;;;;;0.99;100.00;98949.91;5050662;28;20373;-86
2021/01/06 02:47:52;;;;;;;;;;;;;;;0.92;100.00;98953.25;5051331;28;19912;-86
2021/01/06 02:50:19;;;;;;;;;;;;;;;1.00;100.00;98956.66;5051322;28;20341;-86
2021/01/06 02:52:48;;;;;;;;;;;;;;;0.99;100.00;98950.75;5063007;28;19931;-87
2021/01/06 02:55:13;;;;;;;;;;;;;;;0.90;100.00;98945.63;5061078;28;19979;-86
2021/01/06 02:57:39;;;;;;;;;;;;;;;0.89;100.00;98950.69;5051635;28;19999;-86
2021/01/06 03:00:05;;;;;;;;;;;;;;;0.82;100.00;98943.06;5051518;28;20312;-86
2021/01/06 03:02:31;;;;;;;;;;;;;;;0.81;100.00;98946.41;5058158;28;19977;-86
2021/01/06 03:04:59;;;;;;;;;;;;;;;0.86;100.00;98941.38;5052464;28;19916;-88
2021/01/06 03:07:24;;;;;;;;;;;;;;;0.94;100.00;98943.97;5044476;28;20419;-88
2021/01/06 03:09:49;;;;;;;;;;;;;;;0.98;100.00;98944.00;5050411;28;20015;-88
2021/01/06 03:12:17;;;;;;;;;;;;;;;0.94;100.00;98947.34;5039794;28;19916;-87
2021/01/06 03:14:42;;;;;;;;;;;;;;;0.92;100.00;98943.13;5050631;28;19919;-87
2021/01/06 03:17:08;;;;;;;;;;;;;;;0.93;100.00;98947.34;5049195;28;19912;-87
2021/01/06 03:19:33;;;;;;;;;;;;;;;0.96;100.00;98940.59;5057787;28;19921;-87
2021/01/06 03:22:00;;;;;;;;;;;;;;;0.95;100.00;98949.03;5040375;28;19916;-87
2021/01/06 03:24:26;;;;;;;;;;;;;;;0.98;100.00;98950.75;5048821;28;19931;-89
2021/01/06 03:26:51;;;;;;;;;;;;;;;1.05;100.00;98937.28;5057001;28;19912;-87
2021/01/06 03:29:17;;;;;;;;;;;;;;;0.98;100.00;98943.13;5048734;28;19920;-88
2021/01/06 03:31:43;;;;;;;;;;;;;;;1.01;100.00;98935.56;5049099;28;20472;-87
2021/01/06 03:34:14;;;;;;;;;;;;;;;1.07;100.00;98938.09;5049078;28;19916;-86
2021/01/06 03:36:41;;;;;;;;;;;;;;;1.03;100.00;98933.88;5065294;28;19920;-87
2021/01/06 03:39:15;;;;;;;;;;;;;;;1.13;100.00;98939.84;5054944;28;20053;-87
2021/01/06 03:41:40;;;;;;;;;;;;;;;1.09;100.00;98936.44;5041918;28;19920;-87
2021/01/06 03:44:06;;;;;;;;;;;;;;;1.06;100.00;98933.88;5047958;28;19920;-87
2021/01/06 03:46:39;;;;;;;;;;;;;;;1.10;100.00;98937.31;5047381;28;19965;-87
2021/01/06 03:49:05;;;;;;;;;;;;;;;1.12;100.00;98930.53;5054584;28;19919;-88
2021/01/06 03:51:40;;;;;;;;;;;;;;;1.10;100.00;98935.59;5058113;28;20596;-88
2021/01/06 03:54:18;;;;;;;;;;;;;;;1.01;100.00;98922.88;5056678;28;19924;-87
2021/01/06 03:56:43;;;;;;;;;;;;;;;0.98;100.00;98931.31;5057392;28;19991;-87
2021/01/06 03:59:13;;;;;;;;;;;;;;;0.89;100.00;98927.88;5047669;28;20792;-87
2021/01/06 04:01:47;;;;;;;;;;;;;;;0.96;100.00;98929.63;5049289;28;19916;-87
2021/01/06 04:04:18;;;;;;;;;;;;;;;0.93;100.00;98925.34;5059636;28;20019;-87
2021/01/06 04:06:45;;;;;;;;;;;;;;;0.94;100.00;98928.75;5060964;28;19923;-87
2021/01/06 04:09:22;;;;;;;;;;;;;;;1.13;100.00;98927.16;5047461;28;19916;-87
2021/01/06 04:12:01;;;;;;;;;;;;;;;0.89;100.00;98927.88;5047799;28;20394;-87
2021/01/06 04:14:26;;;;;;;;;;;;;;;0.87;100.00;98925.34;5056468;28;19920;-88
2021/01/06 04:16:52;;;;;;;;;;;;;;;0.94;100.00;98922.00;5049064;28;20297;-86
2021/01/06 04:19:18;;;;;;;;;;;;;;;0.90;100.00;98920.28;5042370;28;20285;-87
2021/01/06 04:21:43;;;;;;;;;;;;;;;0.77;100.00;98919.34;5048463;28;20024;-86
2021/01/06 04:24:12;;;;;;;;;;;;;;;0.87;100.00;98920.28;5042367;28;20003;-87
2021/01/06 04:26:38;;;;;;;;;;;;;;;0.92;100.00;98918.59;5042023;28;19960;-87
2021/01/06 04:29:04;;;;;;;;;;;;;;;0.81;100.00;98918.53;5047584;28;20458;-87
2021/01/06 04:31:29;;;;;;;;;;;;;;;0.85;100.00;98916.03;5046457;28;20517;-87
2021/01/06 04:33:54;;;;;;;;;;;;;;;0.74;100.00;98916.81;5057098;28;20011;-88
2021/01/06 04:36:21;;;;;;;;;;;;;;;0.81;100.00;98915.16;5038905;28;19913;-89
2021/01/06 04:38:48;;;;;;;;;;;;;;;0.63;100.00;98911.66;5056294;28;19916;-88
2021/01/06 04:41:32;;;;;;;;;;;;;;;0.78;100.00;98910.09;5046730;28;19922;-87
2021/01/06 04:44:00;;;;;;;;;;;;;;;0.82;100.00;98905.03;5075969;28;19993;-88
2021/01/06 04:46:33;;;;;;;;;;;;;;;0.82;100.00;98899.97;5057635;28;19966;-88
2021/01/06 04:49:12;;;;;;;;;;;;;;;0.74;100.00;98894.00;5040698;28;19912;-89
2021/01/06 04:51:40;;;;;;;;;;;;;;;0.73;100.00;98896.50;5056074;28;19916;-87
2021/01/06 04:54:13;;;;;;;;;;;;;;;0.83;100.00;98894.03;5063935;28;19920;-89
2021/01/06 04:56:47;;;;;;;;;;;;;;;0.73;100.00;98897.38;5055469;28;19995;-89
2021/01/06 04:59:25;;;;;;;;;;;;;;;0.89;100.00;98897.44;5057980;28;19923;-88
2021/01/06 05:02:15;;;;;;;;;;;;;;;0.76;100.00;98897.41;5051608;28;20224;-88
2021/01/06 05:04:50;;;;;;;;;;;;;;;0.82;100.00;98896.56;5019324;28;20012;-88
2021/01/06 05:07:28;;;;;;;;;;;;;;;0.76;100.00;98899.94;5065927;28;19981;-87
2021/01/06 05:10:00;;;;;;;;;;;;;;;0.86;100.00;98897.44;5057815;28;20019;-88
2021/01/06 05:12:29;;;;;;;;;;;;;;;0.73;100.00;98902.47;5059343;28;19920;-88
2021/01/06 05:15:15;;;;;;;;;;;;;;;0.87;100.00;98901.66;5062287;28;19925;-88
2021/01/06 05:17:41;;;;;;;;;;;;;;;0.79;100.00;98899.94;5046488;28;19920;-88
2021/01/06 05:20:07;;;;;;;;;;;;;;;0.90;100.00;98901.69;5060353;28;20062;-87
2021/01/06 05:22:34;;;;;;;;;;;;;;;0.92;100.00;98895.78;5053507;28;19912;-88
2021/01/06 05:24:59;;;;;;;;;;;;;;;0.75;100.00;98892.31;5051456;28;19957;-87
2021/01/06 05:27:26;;;;;;;;;;;;;;;0.61;100.00;98900.66;5052054;28;19962;-87
2021/01/06 05:29:58;;;;;;;;;;;;;;;0.58;100.00;98893.06;5049609;28;19963;-87
2021/01/06 05:32:27;;;;;;;;;;;;;;;0.77;100.00;98893.16;5058755;28;20019;-87
2021/01/06 05:34:56;;;;;;;;;;;;;;;0.69;100.00;98890.59;5065089;28;20007;-86
2021/01/06 05:37:22;;;;;;;;;;;;;;;0.76;100.00;98887.25;5040832;28;19965;-86
2021/01/06 05:39:47;;;;;;;;;;;;;;;0.91;100.00;98885.63;5051202;28;19920;-87
2021/01/06 05:42:27;;;;;;;;;;;;;;;1.00;100.00;98880.59;5044957;28;19917;-86
2021/01/06 05:44:53;;;;;;;;;;;;;;;0.73;100.00;98878.78;5047044;28;19928;-87
2021/01/06 05:47:24;;;;;;;;;;;;;;;0.64;100.00;98882.13;5044594;28;19957;-86
2021/01/06 05:49:51;;;;;;;;;;;;;;;0.86;100.00;98874.63;5058119;28;20377;-88
2021/01/06 05:52:16;;;;;;;;;;;;;;;0.61;100.00;98871.94;5058054;28;19916;-86
2021/01/06 05:54:47;;;;;;;;;;;;;;;0.69;100.00;98870.31;5049088;28;19917;-86
2021/01/06 05:57:27;;;;;;;;;;;;;;;0.73;100.00;98873.69;5046401;28;19969;-86
2021/01/06 06:00:11;;;;;;;;;;;;;;;0.69;100.00;98874.56;5069917;28;19939;-86
2021/01/06 06:02:49;;;;;;;;;;;;;;;0.63;100.00;98875.34;5067392;28;19917;-86
2021/01/06 06:05:33;;;;;;;;;;;;;;;0.57;100.00;98880.38;5080248;28;19917;-86
2021/01/06 06:08:00;;;;;;;;;;;;;;;0.54;100.00;98876.13;5073553;28;19956;-85
2021/01/06 06:10:44;;;;;;;;;;;;;;;0.60;100.00;98875.34;5071769;28;19916;-86
2021/01/06 06:13:28;;;;;;;;;;;;;;;0.56;100.00;98876.16;5071897;28;19912;-85
2021/01/06 06:15:59;;;;;;;;;;;;;;;0.27;100.00;98881.00;5068387;28;19923;-86
2021/01/06 06:18:28;;;;;;;;;;;;;;;0.51;100.00;98877.81;5084107;28;19935;-86
2021/01/06 06:21:12;;;;;;;;;;;;;;;0.50;100.00;98879.50;5066591;28;20817;-88
2021/01/06 06:23:44;;;;;;;;;;;;;;;0.56;100.00;98881.22;5067964;28;19959;-87
2021/01/06 06:26:31;;;;;;;;;;;;;;;0.40;100.00;98885.34;5056271;28;19966;-88
2021/01/06 06:29:15;;;;;;;;;;;;;;;0.43;100.00;98877.75;5016780;28;19913;-88
2021/01/06 06:31:46;;;;;;;;;;;;;;;0.48;100.00;98882.84;5062622;28;19978;-88
2021/01/06 06:34:11;;;;;;;;;;;;;;;0.44;100.00;98878.63;5058619;28;19912;-88
2021/01/06 06:36:38;;;;;;;;;;;;;;;0.30;100.00;98881.91;5048701;28;19916;-89
2021/01/06 06:39:12;;;;;;;;;;;;;;;0.25;100.00;98883.56;5050289;28;19912;-87
2021/01/06 06:41:38;;;;;;;;;;;;;;;0.29;100.00;98879.34;5071758;28;20003;-87
2021/01/06 06:44:16;;;;;;;;;;;;;;;0.38;100.00;98890.38;5061394;28;20003;-87
2021/01/06 06:46:45;;;;;;;;;;;;;;;0.23;100.00;98889.41;5068074;28;19920;-87
2021/01/06 06:49:30;;;;;;;;;;;;;;;0.28;100.00;98888.63;5066421;28;19960;-86
2021/01/06 06:52:08;;;;;;;;;;;;;;;0.33;100.00;98889.50;5053423;28;20332;-87
2021/01/06 06:54:38;;;;;;;;;;;;;;;0.34;100.00;98892.88;5070874;28;20279;-88
2021/01/06 06:57:14;;;;;;;;;;;;;;;0.30;100.00;98892.03;5058186;28;19952;-87
2021/01/06 06:59:43;;;;;;;;;;;;;;;0.50;100.00;98893.84;5051579;28;20377;-88
2021/01/06 07:02:08;;;;;;;;;;;;;;;0.32;100.00;98892.91;5071097;28;19916;-86
2021/01/06 07:04:43;;;;;;;;;;;;;;;0.30;100.00;98897.09;5057547;28;19921;-87
2021/01/06 07:07:18;;;;;;;;;;;;;;;0.33;100.00;98897.09;5064581;28;19916;-88
2021/01/06 07:09:47;;;;;;;;;;;;;;;0.52;100.00;98897.22;5047617;28;20388;-85
2021/01/06 07:12:13;;;;;;;;;;;;;;;0.43;100.00;98892.09;5061949;28;19945;-85
2021/01/06 07:14:41;;;;;;;;;;;;;;;0.34;100.00;98895.41;5042218;28;19916;-85
2021/01/06 07:17:08;;;;;;;;;;;;;;;0.48;100.00;98900.56;5066747;28;19959;-86
2021/01/06 07:19:39;;;;;;;;;;;;;;;0.41;100.00;98899.69;5048524;28;20339;-85
2021/01/06 07:22:16;;;;;;;;;;;;;;;0.45;100.00;98896.34;5044686;28;19912;-85
2021/01/06 07:24:42;;;;;;;;;;;;;;;0.38;100.00;98900.50;5056791;28;19912;-84
2021/01/06 07:27:07;;;;;;;;;;;;;;;0.34;100.00;98901.34;5049104;28;20316;-85
2021/01/06 07:30:02;;;;;;;;;;;;;;;0.51;100.00;98900.63;5048452;28;19928;-85
2021/01/06 07:32:40;;;;;;;;;;;;;;;0.53;100.00;98898.94;5036239;28;20390;-85
2021/01/06 07:35:20;;;;;;;;;;;;;;;0.49;100.00;98900.59;5048563;28;19912;-85
2021/01/06 07:37:45;;;;;;;;;;;;;;;0.42;100.00;98903.94;5033268;28;19920;-85
2021/01/06 07:40:29;;;;;;;;;;;;;;;0.26;100.00;98905.50;5057304;28;19921;-84
2021/01/06 07:43:07;;;;;;;;;;;;;;;0.31;100.00;98898.78;5070531;28;19916;-85
2021/01/06 07:45:35;;;;;;;;;;;;;;;0.30;100.00;98902.16;5059548;28;19919;-85
2021/01/06 07:48:16;;;;;;;;;;;;;;;0.39;100.00;98897.16;5057187;28;20428;-84
2021/01/06 07:50:51;;;;;;;;;;;;;;;0.39;100.00;98907.28;5063037;28;20436;-85
2021/01/06 07:53:17;;;;;;;;;;;;;;;0.38;100.00;98904.75;5076052;28;19923;-85
2021/01/06 07:55:45;;;;;;;;;;;;;;;0.45;100.00;98909.00;5036058;28;19912;-84
2021/01/06 07:58:15;;;;;;;;;;;;;;;0.29;100.00;98905.50;5039733;28;19916;-84
2021/01/06 08:01:10;;;;;;;;;;;;;;;0.46;100.00;98912.38;5056693;28;20351;-85
2021/01/06 08:03:48;;;;;;;;;;;;;;;0.27;100.00;98907.19;5040196;28;20612;-85
2021/01/06 08:06:13;;;;;;;;;;;;;;;0.46;100.00;98913.25;5071275;28;19920;-85
2021/01/06 08:08:42;;;;;;;;;;;;;;;0.40;100.00;98920.81;5057782;28;20498;-85
2021/01/06 08:11:08;;;;;;;;;;;;;;;0.64;100.00;98912.53;5055129;28;19926;-85
2021/01/06 08:13:34;;;;;;;;;;;;;;;0.74;100.00;98914.28;5054610;28;20427;-85
2021/01/06 08:16:06;;;;;;;;;;;;;;;0.73;100.00;98917.66;5037534;28;19931;-85
2021/01/06 08:18:41;;;;;;;;;;;;;;;0.55;100.00;98917.53;5080416;28;19916;-85
2021/01/06 08:21:06;;;;;;;;;;;;;;;0.66;100.00;98922.66;5074904;28;19928;-85
2021/01/06 08:23:51;;;;;;;;;;;;;;;0.89;100.00;98918.59;5057064;28;19916;-85
2021/01/06 08:26:23;;;;;;;;;;;;;;;0.94;100.00;98926.22;5056043;28;20438;-84
2021/01/06 08:28:49;;;;;;;;;;;;;;;0.71;100.00;98923.53;5026944;28;20552;-84
2021/01/06 08:31:15;;;;;;;;;;;;;;;0.73;100.00;98926.94;5040779;28;19982;-85
2021/01/06 08:33:48;;;;;;;;;;;;;;;0.72;100.00;98926.09;5056256;28;19916;-85
2021/01/06 08:36:17;;;;;;;;;;;;;;;0.72;100.00;98928.63;5056211;28;19916;-85
2021/01/06 08:38:45;;;;;;;;;;;;;;;0.59;100.00;98930.25;5061789;28;19917;-85
2021/01/06 08:41:20;;;;;;;;;;;;;;;0.65;100.00;98923.50;5073830;28;19920;-85
2021/01/06 08:43:46;;;;;;;;;;;;;;;0.68;100.00;98928.59;5064437;28;19916;-85
2021/01/06 08:46:25;;;;;;;;;;;;;;;0.64;100.00;98932.81;5050419;28;19932;-85
2021/01/06 08:48:51;;;;;;;;;;;;;;;0.55;100.00;98931.06;5057894;28;19957;-85
2021/01/06 08:51:17;;;;;;;;;;;;;;;0.47;100.00;98926.75;5040935;28;20324;-85
2021/01/06 08:53:43;;;;;;;;;;;;;;;0.58;100.00;98925.16;5048154;28;19934;-85
2021/01/06 08:56:09;;;;;;;;;;;;;;;0.57;100.00;98920.91;5044387;28;19917;-85
2021/01/06 08:58:41;;;;;;;;;;;;;;;0.54;100.00;98920.91;5047674;28;20695;-86
2021/01/06 09:01:16;;;;;;;;;;;;;;;0.69;100.00;98928.63;5039421;28;19917;-85
2021/01/06 09:03:54;;;;;;;;;;;;;;;0.40;100.00;98924.19;5070617;28;19916;-85
2021/01/06 09:06:21;;;;;;;;;;;;;;;0.29;100.00;98928.31;5050628;28;19920;-85
2021/01/06 09:08:49;;;;;;;;;;;;;;;0.31;100.00;98934.25;5071827;28;19916;-85
2021/01/06 09:11:27;;;;;;;;;;;;;;;0.25;100.00;98931.69;5042303;28;19924;-84
2021/01/06 09:14:01;;;;;;;;;;;;;;;0.46;100.00;98932.66;5062635;28;20030;-84
2021/01/06 09:16:49;;;;;;;;;;;;;;;0.43;100.00;98937.69;5060597;28;19912;-84
2021/01/06 09:19:23;;;;;;;;;;;;;;;0.60;100.00;98936.16;5061714;28;19920;-84
2021/01/06 09:21:48;;;;;;;;;;;;;;;0.40;100.00;98931.78;5056679;28;19927;-86
2021/01/06 09:24:17;;;;;;;;;;;;;;;0.28;100.00;98930.84;5057454;28;19912;-85
2021/01/06 09:26:44;;;;;;;;;;;;;;;0.34;100.00;98930.88;5055322;28;20031;-85
2021/01/06 09:29:11;;;;;;;;;;;;;;;0.47;100.00;98939.44;5041300;28;19994;-84
2021/01/06 09:31:41;;;;;;;;;;;;;;;0.25;100.00;98931.69;5062265;28;19979;-84
2021/01/06 09:34:06;;;;;;;;;;;;;;;0.32;100.00;98935.94;5061277;28;19924;-85
2021/01/06 09:36:32;;;;;;;;;;;;;;;0.26;100.00;98932.53;5051705;28;19912;-85
2021/01/06 09:38:57;;;;;;;;;;;;;;;0.13;100.00;98929.03;5052196;28;20489;-85
2021/01/06 09:41:27;;;;;;;;;;;;;;;0.24;100.00;98926.59;5052122;28;20542;-84
2021/01/06 09:44:04;;;;;;;;;;;;;;;0.48;100.00;98931.84;5052497;28;20331;-84
2021/01/06 09:46:53;;;;;;;;;;;;;;;0.38;100.00;98925.84;5059080;28;20462;-84
2021/01/06 09:49:24;;;;;;;;;;;;;;;0.28;100.00;98924.09;5084750;28;20293;-85
2021/01/06 09:51:50;;;;;;;;;;;;;;;0.44;100.00;98925.06;5057057;28;19916;-85
2021/01/06 09:54:15;;;;;;;;;;;;;;;0.45;100.00;98925.91;5054603;28;19919;-84
2021/01/06 09:56:41;;;;;;;;;;;;;;;0.46;100.00;98932.66;5035631;28;19925;-84
2021/01/06 09:59:27;;;;;;;;;;;;;;;0.43;100.00;98923.34;5040772;28;20003;-85
2021/01/06 10:02:04;;;;;;;;;;;;;;;0.30;100.00;98927.50;5061276;28;19924;-84
2021/01/06 10:04:34;;;;;;;;;;;;;;;0.32;100.00;98930.88;5082822;28;19931;-86
2021/01/06 10:07:18;;;;;;;;;;;;;;;0.30;100.00;98930.03;5046518;28;19921;-84
2021/01/06 10:10:00;;;;;;;;;;;;;;;0.47;100.00;98929.31;5067394;28;20358;-84
2021/01/06 10:12:35;;;;;;;;;;;;;;;0.51;100.00;98923.44;5057300;28;19969;-84
2021/01/06 10:15:19;;;;;;;;;;;;;;;0.77;100.00;98924.41;5079316;28;19927;-84
2021/01/06 10:18:09;;;;;;;;;;;;;;;;;;;;;
2021/01/06 10:21:19;;;;;;;;;;;;;;;0.55;100.00;98922.63;5062978;28;19923;-84
2021/01/06 10:23:58;;;;;;;;;;;;;;;0.56;100.00;98924.28;5009492;28;19921;-84
2021/01/06 10:26:30;;;;;;;;;;;;;;;0.69;100.00;98920.16;5039397;28;19916;-84
2021/01/06 10:32:18;;;;;;;;;;;;;;;0.48;100.00;98918.31;5030798;28;19933;-84
2021/01/06 10:34:51;;;;;;;;;;;;;;;0.37;100.00;98916.56;5042954;28;19920;-84
2021/01/06 10:40:20;;;;;;;;;;;;;;;0.52;100.00;98917.50;5012770;28;20024;-84
2021/01/06 10:43:11;;;;;;;;;;;;;;;0.67;100.00;98907.47;5034989;28;20329;-84
2021/01/06 10:45:54;;;;;;;;;;;;;;;;;;;;;
2021/01/06 10:48:38;;;;;;;;;;;;;;;0.41;100.00;98897.16;5039986;28;19920;-83
2021/01/06 10:51:04;;;;;;;;;;;;;;;0.16;100.00;98903.72;5045279;28;19923;-84
2021/01/06 10:53:29;;;;;;;;;;;;;;;0.08;100.00;98900.28;5033158;28;19924;-84
2021/01/06 10:56:01;;;;;;;;;;;;;;;0.05;100.00;98895.22;5029599;28;19948;-84
2021/01/06 10:58:47;;;;;;;;;;;;;;;0.10;100.00;98899.47;5052155;28;19916;-84
2021/01/06 11:01:16;;;;;;;;;;;;;;;0.08;100.00;98900.28;5035970;28;20011;-84
2021/01/06 11:03:58;;;;;;;;;;;;;;;0.05;100.00;98895.22;5045432;28;19916;-84
2021/01/06 11:06:31;;;;;;;;;;;;;;;0.03;100.00;98894.34;5043988;28;19976;-84
2021/01/06 11:09:02;;;;;;;;;;;;;;;0.12;100.00;98885.13;5052004;28;19923;-84
2021/01/06 11:11:28;;;;;;;;;;;;;;;0.00;100.00;98887.59;5049133;28;19916;-84
2021/01/06 11:14:12;;;;;;;;;;;;;;;0.02;100.00;98890.09;5037565;28;19986;-83
2021/01/06 11:16:41;;;;;;;;;;;;;;;0.02;100.00;98880.81;5036197;28;19928;-84
2021/01/06 11:19:36;;;;;;;;;;;;;;;0.04;100.00;98878.31;5034362;28;19913;-84
2021/01/06 11:22:05;;;;;;;;;;;;;;;0.02;100.00;98880.81;4946501;28;19922;-84
2021/01/06 11:24:48;;;;;;;;;;;;;;;0.01;100.00;98874.06;5032519;28;19913;-84
2021/01/06 11:27:32;;;;;;;;;;;;;;;0.07;100.00;98874.13;5040505;28;19916;-84
2021/01/06 11:30:07;;;;;;;;;;;;;;;0.03;100.00;98872.41;5051934;28;19936;-84
2021/01/06 12:58:14;;;;;;;;;;;;;;;-0.15;100.00;98797.16;4893990;29;19930;-84
2021/01/06 13:01:13;;;;;;;;;;;;;;;-0.09;100.00;98789.63;4865044;29;19924;-84
2021/01/06 13:13:27;;;;;;;;;;;;;;;0.13;100.00;98792.28;4893590;29;21056;-84
2021/01/06 13:16:41;;;;;;;;;;;;;;;;;;;;;
2021/01/06 13:19:35;;;;;;;;;;;;;;;0.20;100.00;98794.03;4888096;29;19930;-84
2021/01/06 13:25:27;;;;;;;;;;;;;;;0.22;100.00;98789.81;4846961;29;20466;-84
2021/01/06 13:28:54;;;;;;;;;;;;;;;;;;;;;
2021/01/06 13:31:57;;;;;;;;;;;;;;;0.18;100.00;98785.56;4822961;29;19922;-84
2021/01/06 13:35:17;;;;;;;;;;;;;;;0.29;100.00;98789.00;4828949;29;20397;-84
2021/01/06 13:38:22;;;;;;;;;;;;;;;0.14;100.00;98794.84;4813927;29;19934;-84
2021/01/06 13:40:51;;;;;;;;;;;;;;;0.02;100.00;98794.75;4847539;29;20350;-84
2021/01/06 13:43:38;;;;;;;;;;;;;;;0.05;100.00;98799.84;4869983;29;19927;-84
2021/01/06 13:46:21;;;;;;;;;;;;;;;-0.08;100.00;98798.06;4892011;29;20881;-84
2021/01/06 13:49:10;;;;;;;;;;;;;;;-0.06;100.00;98804.81;4891034;29;19994;-86
2021/01/06 13:51:46;;;;;;;;;;;;;;;0.02;100.00;98804.88;4874414;29;20748;-85
2021/01/06 13:54:53;;;;;;;;;;;;;;;-0.01;100.00;98810.75;4861848;29;19931;-86
2021/01/06 13:57:30;;;;;;;;;;;;;;;-0.03;100.00;98809.91;4910236;29;20136;-85
2021/01/06 14:00:02;;;;;;;;;;;;;;;-0.06;100.00;98812.41;4910553;29;20401;-86
2021/01/06 14:02:44;;;;;;;;;;;;;;;-0.03;100.00;98809.91;4911022;29;19927;-86
2021/01/06 14:05:10;;;;;;;;;;;;;;;0.02;100.00;98809.94;4899698;29;19919;-85
2021/01/06 14:07:49;;;;;;;;;;;;;;;0.02;100.00;98812.47;4901161;29;19942;-85
2021/01/06 14:10:26;;;;;;;;;;;;;;;0.07;100.00;98807.44;4902112;29;19978;-85
2021/01/06 14:12:57;;;;;;;;;;;;;;;0.03;100.00;98803.22;4924166;29;20436;-85
2021/01/06 14:15:24;;;;;;;;;;;;;;;-0.01;100.00;98805.69;4904727;29;20018;-86
2021/01/06 14:18:01;;;;;;;;;;;;;;;0.04;100.00;98808.25;4903546;29;19915;-85
2021/01/06 14:20:30;;;;;;;;;;;;;;;0.03;100.00;98811.66;4900595;29;19962;-85
2021/01/06 14:23:05;;;;;;;;;;;;;;;-0.02;100.00;98805.72;4903086;29;20282;-85
2021/01/06 14:25:32;;;;;;;;;;;;;;;0.02;100.00;98798.97;4912533;29;19919;-85
2021/01/06 14:28:04;;;;;;;;;;;;;;;0.01;100.00;98799.81;4905151;29;19958;-85
2021/01/06 14:30:33;;;;;;;;;;;;;;;0.02;100.00;98798.97;4900219;29;19919;-86
2021/01/06 14:33:02;;;;;;;;;;;;;;;-0.03;100.00;98804.00;4902214;29;19925;-85
2021/01/06 14:35:33;;;;;;;;;;;;;;;0.03;100.00;98800.69;4916463;29;19919;-85
2021/01/06 14:38:01;;;;;;;;;;;;;;;-0.01;100.00;98792.19;4902098;29;19957;-85
2021/01/06 14:40:47;;;;;;;;;;;;;;;-0.07;100.00;98795.56;4917326;29;19935;-85
2021/01/06 14:43:13;;;;;;;;;;;;;;;0.01;100.00;98797.28;4927418;29;19923;-85
2021/01/06 14:45:44;;;;;;;;;;;;;;;0.01;100.00;98794.75;4910787;29;19951;-84
2021/01/06 14:48:11;;;;;;;;;;;;;;;-0.05;100.00;98798.91;4918005;29;20321;-85
2021/01/06 14:50:45;;;;;;;;;;;;;;;-0.05;100.00;98788.78;4900380;29;19919;-86
2021/01/06 14:53:17;;;;;;;;;;;;;;;-0.05;100.00;98793.84;4910916;29;20049;-86
2021/01/06 14:55:57;;;;;;;;;;;;;;;-0.09;100.00;98794.69;4915446;29;19919;-85
2021/01/06 14:58:23;;;;;;;;;;;;;;;-0.09;100.00;98792.16;4914956;29;19919;-83
2021/01/06 15:00:48;;;;;;;;;;;;;;;-0.12;100.00;98794.66;4914173;29;19957;-85